Time;durP1;ratioP1;P1;durP2;ratioP2;P2;SDS_P1;SDS_P2;PMS_P1;PMS_P2;Temp;Humidity;BMP_temperature;BMP_pressure;BME280_temperature;BME280_humidity;BME280_pressure;Samples;Min_cycle;Max_cycle;Signal;HPM_P1;HPM_P2
2022/10/22 00:01:50;;;;;;;0.00;0.00;;;13.80;99.90;;;;;;5088753;28;20047;-86
2022/10/22 00:04:17;;;;;;;0.00;0.00;;;;;;;;;;5087696;28;20047;-86
2022/10/22 00:06:46;;;;;;;0.00;0.00;;;13.80;99.90;;;;;;5088751;28;20423;-85
2022/10/22 00:09:14;;;;;;;0.03;0.03;;;13.70;99.90;;;;;;5081815;28;20233;-85
2022/10/22 00:11:41;;;;;;;0.00;0.00;;;14.70;99.90;;;;;;5090390;28;20044;-86
2022/10/22 00:14:08;;;;;;;0.00;0.00;;;;;;;;;;5088426;28;20044;-86
2022/10/22 00:16:35;;;;;;;0.00;0.00;;;13.80;99.90;;;;;;5090594;28;20040;-87
2022/10/22 00:19:02;;;;;;;0.00;0.00;;;13.80;99.90;;;;;;5087705;28;20107;-86
2022/10/22 00:21:29;;;;;;;0.00;0.00;;;13.80;99.90;;;;;;5088936;28;20127;-85
2022/10/22 00:23:57;;;;;;;0.00;0.00;;;13.80;99.90;;;;;;5087620;28;20130;-86
2022/10/22 00:26:24;;;;;;;0.00;0.00;;;16.10;99.90;;;;;;5087901;28;20038;-86
2022/10/22 00:28:52;;;;;;;0.00;0.00;;;13.70;99.90;;;;;;5084684;28;20062;-86
2022/10/22 00:31:19;;;;;;;0.00;0.00;;;13.70;99.90;;;;;;5089505;28;20044;-86
2022/10/22 00:33:46;;;;;;;0.00;0.00;;;13.60;99.90;;;;;;5086013;28;20056;-85
2022/10/22 00:36:13;;;;;;;0.00;0.00;;;13.70;99.90;;;;;;5104760;28;20039;-85
2022/10/22 00:38:41;;;;;;;0.00;0.00;;;15.10;99.90;;;;;;5084588;28;20046;-85
2022/10/22 00:41:09;;;;;;;0.00;0.00;;;13.70;99.90;;;;;;5089021;28;20423;-86
2022/10/22 00:43:56;;;;;;;0.00;0.00;;;13.70;99.90;;;;;;5091414;28;20281;-85
2022/10/22 00:46:23;;;;;;;0.10;0.10;;;13.70;99.90;;;;;;5091125;28;20168;-85
2022/10/22 00:48:50;;;;;;;0.00;0.00;;;15.30;99.90;;;;;;5088384;28;20119;-86
2022/10/22 00:51:20;;;;;;;0.10;0.10;;;13.70;99.90;;;;;;5082288;28;20071;-86
2022/10/22 00:53:49;;;;;;;0.00;0.00;;;13.70;99.90;;;;;;5085904;28;20082;-86
2022/10/22 00:56:18;;;;;;;0.00;0.00;;;13.70;99.90;;;;;;5085910;28;20127;-86
2022/10/22 00:58:51;;;;;;;0.00;0.00;;;14.00;99.90;;;;;;5089791;28;20040;-86
2022/10/22 01:01:21;;;;;;;0.00;0.00;;;13.70;99.90;;;;;;5087531;28;20070;-87
2022/10/22 01:03:49;;;;;;;0.00;0.00;;;13.70;99.90;;;;;;5087228;28;20048;-86
2022/10/22 01:06:21;;;;;;;0.00;0.00;;;13.60;99.90;;;;;;5086231;28;21334;-85
2022/10/22 01:08:57;;;;;;;0.00;0.00;;;13.40;99.90;;;;;;5084936;28;20126;-86
2022/10/22 01:11:34;;;;;;;0.00;0.00;;;13.40;99.90;;;;;;5086033;28;20060;-85
2022/10/22 01:14:11;;;;;;;0.00;0.00;;;13.40;99.90;;;;;;5080631;28;20054;-86
2022/10/22 01:16:47;;;;;;;0.00;0.00;;;13.50;99.90;;;;;;5084867;28;20135;-85
2022/10/22 01:19:30;;;;;;;0.00;0.00;;;13.50;99.90;;;;;;5082802;28;20047;-86
2022/10/22 01:22:02;;;;;;;0.00;0.00;;;13.60;99.90;;;;;;5085315;28;20070;-86
2022/10/22 01:24:40;;;;;;;0.00;0.00;;;13.40;99.90;;;;;;5087494;28;20040;-86
2022/10/22 01:27:32;;;;;;;0.00;0.00;;;13.40;99.90;;;;;;5082891;28;20046;-86
2022/10/22 01:30:03;;;;;;;0.00;0.00;;;13.40;99.90;;;;;;5084886;28;20135;-86
2022/10/22 01:32:34;;;;;;;0.00;0.00;;;13.40;99.90;;;;;;5081851;28;20070;-87
2022/10/22 01:35:05;;;;;;;0.00;0.00;;;13.40;99.90;;;;;;5085988;28;20485;-86
2022/10/22 01:37:37;;;;;;;0.00;0.00;;;13.40;99.90;;;;;;5086236;28;20044;-86
2022/10/22 01:40:06;;;;;;;0.00;0.00;;;13.40;99.90;;;;;;5086059;28;20545;-87
2022/10/22 01:42:33;;;;;;;0.00;0.00;;;13.40;99.90;;;;;;5079847;28;20480;-86
2022/10/22 01:45:01;;;;;;;0.00;0.00;;;13.40;99.90;;;;;;5086368;28;20056;-86
2022/10/22 01:47:41;;;;;;;0.00;0.00;;;13.40;99.90;;;;;;5084400;28;20679;-86
2022/10/22 01:50:27;;;;;;;0.00;0.00;;;13.50;99.90;;;;;;5086664;28;20051;-86
2022/10/22 01:53:08;;;;;;;0.00;0.00;;;13.40;99.90;;;;;;5084888;28;21416;-86
2022/10/22 01:55:43;;;;;;;0.00;0.00;;;13.40;99.90;;;;;;5084989;28;20044;-85
2022/10/22 01:58:20;;;;;;;0.00;0.00;;;13.40;99.90;;;;;;5087793;28;20450;-86
2022/10/22 02:00:56;;;;;;;0.00;0.00;;;13.40;99.90;;;;;;5083525;28;20056;-85
2022/10/22 02:03:29;;;;;;;0.00;0.00;;;13.40;99.90;;;;;;5098868;28;20040;-85
2022/10/22 02:06:00;;;;;;;0.00;0.00;;;13.40;99.90;;;;;;5084153;28;20558;-87
2022/10/22 02:08:30;;;;;;;0.05;0.05;;;13.40;99.90;;;;;;5082029;28;20044;-86
2022/10/22 02:10:58;;;;;;;0.00;0.00;;;14.30;99.90;;;;;;5087676;28;20046;-86
2022/10/22 02:13:29;;;;;;;0.00;0.00;;;13.40;99.90;;;;;;5088459;28;20072;-85
2022/10/22 02:15:58;;;;;;;0.03;0.03;;;13.40;99.90;;;;;;5087847;28;20484;-86
2022/10/22 02:18:29;;;;;;;0.00;0.00;;;13.30;99.90;;;;;;5086105;28;20046;-86
2022/10/22 02:20:58;;;;;;;0.05;0.05;;;13.30;99.90;;;;;;5086713;28;20393;-86
2022/10/22 02:23:25;;;;;;;0.00;0.00;;;13.30;99.90;;;;;;5087284;28;20113;-86
2022/10/22 02:25:59;;;;;;;0.00;0.00;;;13.30;99.90;;;;;;5086690;28;20551;-86
2022/10/22 02:28:31;;;;;;;0.00;0.00;;;13.20;99.90;;;;;;5084325;28;20062;-86
2022/10/22 02:31:10;;;;;;;0.00;0.00;;;13.10;99.90;;;;;;5086893;28;20043;-85
2022/10/22 02:33:42;;;;;;;0.00;0.00;;;15.20;99.90;;;;;;5088197;28;21471;-86
2022/10/22 02:36:10;;;;;;;0.03;0.03;;;13.40;99.90;;;;;;5086451;28;20300;-86
2022/10/22 02:38:39;;;;;;;0.00;0.00;;;13.10;99.90;;;;;;5084436;28;20415;-86
2022/10/22 02:41:06;;;;;;;0.00;0.00;;;13.80;99.90;;;;;;5084667;28;20568;-86
2022/10/22 02:43:40;;;;;;;0.00;0.00;;;13.10;99.90;;;;;;5090205;28;20047;-85
2022/10/22 02:46:09;;;;;;;0.00;0.00;;;13.10;99.90;;;;;;5086234;28;20420;-86
2022/10/22 02:48:36;;;;;;;0.00;0.00;;;13.00;99.90;;;;;;5092526;28;20032;-85
2022/10/22 02:51:03;;;;;;;0.00;0.00;;;;;;;;;;5088956;28;20495;-86
2022/10/22 02:53:31;;;;;;;0.00;0.00;;;13.00;99.90;;;;;;5090433;28;20052;-86
2022/10/22 02:55:58;;;;;;;0.00;0.00;;;13.00;99.90;;;;;;5086524;28;20184;-85
2022/10/22 02:58:25;;;;;;;0.00;0.00;;;;;;;;;;5088069;28;20073;-85
2022/10/22 03:00:52;;;;;;;0.00;0.00;;;;;;;;;;5087591;28;20060;-87
2022/10/22 03:03:21;;;;;;;0.00;0.00;;;12.90;99.90;;;;;;5090064;28;20052;-86
2022/10/22 03:05:49;;;;;;;0.00;0.00;;;13.00;99.90;;;;;;5091447;28;20044;-86
2022/10/22 03:08:16;;;;;;;0.00;0.00;;;12.90;99.90;;;;;;5090460;28;20044;-86
2022/10/22 03:10:43;;;;;;;0.00;0.00;;;12.80;99.90;;;;;;5086189;28;20083;-85
2022/10/22 03:13:10;;;;;;;0.00;0.00;;;12.90;99.90;;;;;;5090891;28;20050;-86
2022/10/22 03:15:37;;;;;;;0.00;0.00;;;12.80;99.90;;;;;;5088736;28;20102;-86
2022/10/22 03:18:04;;;;;;;0.00;0.00;;;12.90;99.90;;;;;;5089612;28;20058;-86
2022/10/22 03:20:32;;;;;;;0.00;0.00;;;12.80;99.90;;;;;;5087514;28;20050;-86
2022/10/22 03:22:59;;;;;;;0.00;0.00;;;12.80;99.90;;;;;;5092325;28;20135;-85
2022/10/22 03:25:29;;;;;;;0.00;0.00;;;12.80;99.90;;;;;;5089990;28;20393;-85
2022/10/22 03:27:59;;;;;;;;;;;12.90;99.90;;;;;;5091081;28;20384;-86
2022/10/22 03:30:26;;;;;;;0.00;0.00;;;12.80;99.90;;;;;;5087096;28;20307;-85
2022/10/22 03:32:53;;;;;;;0.00;0.00;;;12.80;99.90;;;;;;5084914;28;20395;-87
2022/10/22 03:35:20;;;;;;;0.00;0.00;;;12.80;99.90;;;;;;5091501;28;20052;-86
2022/10/22 03:37:49;;;;;;;0.00;0.00;;;12.80;99.90;;;;;;5086716;28;20040;-86
2022/10/22 03:40:17;;;;;;;0.00;0.00;;;12.80;99.90;;;;;;5088011;28;20127;-86
2022/10/22 03:42:44;;;;;;;0.00;0.00;;;;;;;;;;5085635;28;20482;-86
2022/10/22 03:45:11;;;;;;;0.00;0.00;;;;;;;;;;5088615;28;20071;-86
2022/10/22 03:47:38;;;;;;;0.00;0.00;;;12.70;99.90;;;;;;5089361;28;20043;-86
2022/10/22 03:50:07;;;;;;;0.00;0.00;;;12.80;99.90;;;;;;5088601;28;20051;-86
2022/10/22 03:52:37;;;;;;;0.00;0.00;;;12.80;99.90;;;;;;5086044;28;20407;-85
2022/10/22 03:55:07;;;;;;;0.00;0.00;;;12.90;99.90;;;;;;5090190;28;20447;-86
2022/10/22 03:57:34;;;;;;;0.00;0.00;;;12.80;99.90;;;;;;5084320;28;20120;-86
2022/10/22 04:00:01;;;;;;;0.00;0.00;;;;;;;;;;5091378;28;20036;-86
2022/10/22 04:02:29;;;;;;;0.00;0.00;;;;;;;;;;5087817;28;20046;-87
2022/10/22 04:04:55;;;;;;;0.00;0.00;;;12.80;99.90;;;;;;5087671;28;20469;-86
2022/10/22 04:07:23;;;;;;;0.00;0.00;;;;;;;;;;5084647;28;20044;-86
2022/10/22 04:09:49;;;;;;;0.00;0.00;;;12.80;99.90;;;;;;5087712;28;20047;-86
2022/10/22 04:12:18;;;;;;;0.00;0.00;;;12.80;99.90;;;;;;5084032;28;20163;-86
2022/10/22 04:14:45;;;;;;;0.00;0.00;;;;;;;;;;5089677;28;20054;-85
2022/10/22 04:17:12;;;;;;;0.00;0.00;;;12.80;99.90;;;;;;5090172;28;20050;-85
2022/10/22 04:19:38;;;;;;;0.00;0.00;;;12.80;99.90;;;;;;5088955;28;20488;-87
2022/10/22 04:22:05;;;;;;;0.00;0.00;;;15.20;99.90;;;;;;5087230;28;20068;-86
2022/10/22 04:24:32;;;;;;;0.00;0.00;;;12.80;99.90;;;;;;5082175;28;20040;-86
2022/10/22 04:26:59;;;;;;;0.00;0.00;;;;;;;;;;5085599;28;20678;-87
2022/10/22 04:29:27;;;;;;;0.00;0.00;;;12.80;99.90;;;;;;5081991;28;20037;-86
2022/10/22 04:31:54;;;;;;;0.00;0.00;;;12.80;99.90;;;;;;5082580;28;20135;-85
2022/10/22 04:34:21;;;;;;;0.00;0.00;;;14.00;99.90;;;;;;5089233;28;20075;-85
2022/10/22 04:36:48;;;;;;;0.00;0.00;;;12.70;99.90;;;;;;5086722;28;20044;-86
2022/10/22 04:39:15;;;;;;;0.00;0.00;;;13.80;99.90;;;;;;5089272;28;20071;-86
2022/10/22 04:41:41;;;;;;;0.00;0.00;;;12.70;99.90;;;;;;5081981;28;20060;-85
2022/10/22 04:44:08;;;;;;;0.00;0.00;;;12.70;99.90;;;;;;5082899;28;20074;-85
2022/10/22 04:46:44;;;;;;;0.00;0.00;;;12.70;99.90;;;;;;5089369;28;20074;-85
2022/10/22 04:49:11;;;;;;;0.00;0.00;;;12.60;99.90;;;;;;5084939;28;20044;-86
2022/10/22 04:51:38;;;;;;;0.00;0.00;;;12.60;99.90;;;;;;5087936;28;20058;-84
2022/10/22 04:54:05;;;;;;;0.00;0.00;;;13.40;99.90;;;;;;5083823;28;20040;-86
2022/10/22 04:56:32;;;;;;;0.00;0.00;;;12.50;99.90;;;;;;5089053;28;20599;-86
2022/10/22 04:59:01;;;;;;;0.00;0.00;;;12.50;99.90;;;;;;5083689;28;20619;-86
2022/10/22 05:01:29;;;;;;;0.00;0.00;;;12.50;99.90;;;;;;5087834;28;20038;-85
2022/10/22 05:04:00;;;;;;;0.00;0.00;;;12.50;99.90;;;;;;5086117;28;20058;-86
2022/10/22 05:06:27;;;;;;;0.00;0.00;;;12.50;99.90;;;;;;5089152;28;20151;-85
2022/10/22 05:08:57;;;;;;;0.00;0.00;;;12.40;99.90;;;;;;5089823;28;20051;-86
2022/10/22 05:11:27;;;;;;;0.00;0.00;;;14.20;99.90;;;;;;5083060;28;20079;-86
2022/10/22 05:13:54;;;;;;;0.00;0.00;;;12.40;99.90;;;;;;5087294;28;20052;-86
2022/10/22 05:16:21;;;;;;;0.00;0.00;;;12.40;99.90;;;;;;5088547;28;20047;-87
2022/10/22 05:18:49;;;;;;;0.10;0.00;;;;;;;;;;5090705;28;20508;-86
2022/10/22 05:21:19;;;;;;;0.00;0.00;;;12.30;99.90;;;;;;5088842;28;20036;-86
2022/10/22 05:23:48;;;;;;;0.00;0.00;;;12.30;99.90;;;;;;5089477;28;20531;-86
2022/10/22 05:26:16;;;;;;;0.00;0.00;;;12.30;99.90;;;;;;5087186;28;20042;-86
2022/10/22 05:28:43;;;;;;;0.00;0.00;;;12.30;99.90;;;;;;5085874;28;20048;-85
2022/10/22 05:31:12;;;;;;;0.00;0.00;;;13.20;99.90;;;;;;5087264;28;20462;-86
2022/10/22 05:33:40;;;;;;;0.00;0.00;;;12.30;99.90;;;;;;5084721;28;20044;-86
2022/10/22 05:36:09;;;;;;;0.00;0.00;;;12.20;99.90;;;;;;5086593;28;20048;-85
2022/10/22 05:38:37;;;;;;;0.00;0.00;;;12.20;99.90;;;;;;5085496;28;20044;-86
2022/10/22 05:41:06;;;;;;;0.00;0.00;;;12.20;99.90;;;;;;5085132;28;20032;-86
2022/10/22 05:43:34;;;;;;;0.00;0.00;;;13.80;99.90;;;;;;5085647;28;20496;-85
2022/10/22 05:46:02;;;;;;;0.00;0.00;;;12.20;99.90;;;;;;5088369;28;20075;-86
2022/10/22 05:48:29;;;;;;;0.00;0.00;;;13.80;99.90;;;;;;5082499;28;20522;-87
2022/10/22 05:50:56;;;;;;;0.00;0.00;;;13.00;99.90;;;;;;5086772;28;20040;-85
2022/10/22 05:53:23;;;;;;;0.00;0.00;;;;;;;;;;5085844;28;20044;-86
2022/10/22 05:55:51;;;;;;;0.00;0.00;;;12.20;99.90;;;;;;5088955;28;20127;-86
2022/10/22 05:58:19;;;;;;;0.00;0.00;;;;;;;;;;5099891;28;20132;-86
2022/10/22 06:00:45;;;;;;;0.00;0.00;;;12.10;99.90;;;;;;5085248;28;20047;-86
2022/10/22 06:03:12;;;;;;;0.00;0.00;;;13.50;99.90;;;;;;5085315;28;20043;-86
2022/10/22 06:05:39;;;;;;;0.00;0.00;;;13.20;99.90;;;;;;5087393;28;20052;-86
2022/10/22 06:08:06;;;;;;;0.00;0.00;;;;;;;;;;5087825;28;20052;-86
2022/10/22 06:10:33;;;;;;;0.00;0.00;;;11.90;99.90;;;;;;5086593;28;20039;-86
2022/10/22 06:13:02;;;;;;;0.00;0.00;;;11.90;99.90;;;;;;5081344;28;20492;-86
2022/10/22 06:15:28;;;;;;;0.05;0.05;;;12.10;99.90;;;;;;5085880;28;20046;-87
2022/10/22 06:17:55;;;;;;;0.00;0.00;;;11.80;99.90;;;;;;5084057;28;20036;-86
2022/10/22 06:20:22;;;;;;;0.00;0.00;;;11.80;99.90;;;;;;5084420;28;20514;-86
2022/10/22 06:22:49;;;;;;;0.00;0.00;;;11.80;99.90;;;;;;5086901;28;20678;-87
2022/10/22 06:25:16;;;;;;;0.00;0.00;;;11.80;99.90;;;;;;5085307;28;20517;-86
2022/10/22 06:27:47;;;;;;;0.00;0.00;;;11.70;99.90;;;;;;5087089;28;20488;-84
2022/10/22 06:30:16;;;;;;;0.00;0.00;;;11.60;99.90;;;;;;5081555;28;20076;-85
2022/10/22 06:32:43;;;;;;;0.05;0.05;;;11.60;99.90;;;;;;5090111;28;20079;-86
2022/10/22 06:35:09;;;;;;;0.00;0.00;;;11.60;99.90;;;;;;5089449;28;20479;-86
2022/10/22 06:37:36;;;;;;;0.00;0.00;;;13.40;99.90;;;;;;5086346;28;20047;-86
2022/10/22 06:40:04;;;;;;;0.00;0.00;;;11.50;99.90;;;;;;5087464;28;20513;-86
2022/10/22 06:42:31;;;;;;;0.00;0.00;;;11.60;99.90;;;;;;5089571;28;20063;-87
2022/10/22 06:44:58;;;;;;;0.00;0.00;;;11.60;99.90;;;;;;5089353;28;20093;-86
2022/10/22 06:47:26;;;;;;;0.00;0.00;;;11.60;99.90;;;;;;5086323;28;20032;-86
2022/10/22 06:49:53;;;;;;;0.00;0.00;;;11.60;99.90;;;;;;5086480;28;20044;-86
2022/10/22 06:52:20;;;;;;;0.00;0.00;;;11.60;99.90;;;;;;5087912;28;20052;-86
2022/10/22 06:54:47;;;;;;;0.00;0.00;;;11.60;99.90;;;;;;5086358;28;20040;-85
2022/10/22 06:57:13;;;;;;;0.00;0.00;;;11.60;99.90;;;;;;5085757;28;20064;-86
2022/10/22 06:59:40;;;;;;;0.00;0.00;;;11.70;99.90;;;;;;5084683;28;20044;-85
2022/10/22 07:02:08;;;;;;;0.08;0.08;;;11.70;99.90;;;;;;5085053;28;20039;-85
2022/10/22 07:04:36;;;;;;;0.03;0.03;;;12.20;99.90;;;;;;5083862;28;20046;-85
2022/10/22 07:07:03;;;;;;;0.00;0.00;;;11.90;99.90;;;;;;5086454;28;20043;-87
2022/10/22 07:09:30;;;;;;;0.00;0.00;;;;;;;;;;5082725;28;20048;-86
2022/10/22 07:11:57;;;;;;;0.00;0.00;;;11.90;99.90;;;;;;5086788;28;20571;-86
2022/10/22 07:14:24;;;;;;;0.00;0.00;;;11.70;99.90;;;;;;5081339;28;20035;-86
2022/10/22 07:16:51;;;;;;;0.00;0.00;;;13.10;99.90;;;;;;5085493;28;20134;-86
2022/10/22 07:19:18;;;;;;;0.00;0.00;;;11.80;99.90;;;;;;5088688;28;20038;-85
2022/10/22 07:21:46;;;;;;;0.00;0.00;;;11.80;99.90;;;;;;5083923;28;20683;-86
2022/10/22 07:24:12;;;;;;;0.00;0.00;;;13.70;99.90;;;;;;5084162;28;20058;-86
2022/10/22 07:26:40;;;;;;;0.00;0.00;;;;;;;;;;5090122;28;20132;-85
2022/10/22 07:29:07;;;;;;;0.00;0.00;;;11.90;99.90;;;;;;5085813;28;20127;-86
2022/10/22 07:31:33;;;;;;;0.00;0.00;;;12.00;99.90;;;;;;5093483;28;20032;-86
2022/10/22 07:34:00;;;;;;;0.00;0.00;;;12.00;99.90;;;;;;5084441;28;20466;-86
2022/10/22 07:36:27;;;;;;;0.00;0.00;;;13.40;99.90;;;;;;5086749;28;20043;-86
2022/10/22 07:38:57;;;;;;;0.00;0.00;;;12.10;99.90;;;;;;5082628;28;20062;-86
2022/10/22 07:41:25;;;;;;;0.00;0.00;;;13.50;99.90;;;;;;5089828;28;20499;-85
2022/10/22 07:43:52;;;;;;;0.00;0.00;;;12.10;99.90;;;;;;5091394;28;20043;-86
2022/10/22 07:46:19;;;;;;;0.00;0.00;;;12.20;99.90;;;;;;5095586;28;20061;-85
2022/10/22 07:48:46;;;;;;;0.00;0.00;;;12.30;99.90;;;;;;5090702;28;20044;-87
2022/10/22 07:51:13;;;;;;;0.00;0.00;;;13.70;99.90;;;;;;5089022;28;20051;-84
2022/10/22 07:53:40;;;;;;;0.00;0.00;;;12.30;99.90;;;;;;5102582;28;20297;-85
2022/10/22 07:56:08;;;;;;;0.00;0.00;;;12.40;99.90;;;;;;5088331;28;20101;-86
2022/10/22 07:58:35;;;;;;;0.00;0.00;;;12.50;99.90;;;;;;5091420;28;20519;-85
2022/10/22 08:01:04;;;;;;;0.00;0.00;;;12.50;99.90;;;;;;5089370;28;20031;-86
2022/10/22 08:03:32;;;;;;;0.00;0.00;;;14.10;99.90;;;;;;5088408;28;20078;-86
2022/10/22 08:05:59;;;;;;;0.00;0.00;;;12.50;99.90;;;;;;5091402;28;20064;-87
2022/10/22 08:08:28;;;;;;;0.00;0.00;;;12.60;99.90;;;;;;5088627;28;20071;-86
2022/10/22 08:10:59;;;;;;;0.00;0.00;;;12.60;99.90;;;;;;5091030;28;20501;-87
2022/10/22 08:13:29;;;;;;;0.00;0.00;;;12.70;99.90;;;;;;5091567;28;20135;-87
2022/10/22 08:15:57;;;;;;;0.00;0.00;;;12.70;99.90;;;;;;5091944;28;20048;-87
2022/10/22 08:18:24;;;;;;;0.00;0.00;;;12.80;99.90;;;;;;5090507;28;20131;-87
2022/10/22 08:20:52;;;;;;;0.00;0.00;;;12.80;99.90;;;;;;5080070;28;20126;-87
2022/10/22 08:23:19;;;;;;;0.00;0.00;;;12.90;99.90;;;;;;5092974;28;20044;-87
2022/10/22 08:25:54;;;;;;;0.00;0.00;;;12.90;99.90;;;;;;5093044;28;20075;-88
2022/10/22 08:28:21;;;;;;;0.00;0.00;;;;;;;;;;5093303;28;20075;-87
2022/10/22 08:30:49;;;;;;;0.00;0.00;;;13.10;99.90;;;;;;5092359;28;20051;-86
2022/10/22 08:33:17;;;;;;;0.00;0.00;;;;;;;;;;5093266;28;20048;-87
2022/10/22 08:35:47;;;;;;;0.00;0.00;;;13.40;99.90;;;;;;5089580;28;20048;-86
2022/10/22 08:38:14;;;;;;;;;;;13.50;99.90;;;;;;5093149;28;20469;-87
2022/10/22 08:40:43;;;;;;;0.00;0.00;;;13.70;99.90;;;;;;5091754;28;19943;-86
2022/10/22 08:43:40;;;;;;;0.00;0.00;;;13.70;99.90;;;;;;5089619;28;20127;-87
2022/10/22 08:46:18;;;;;;;0.00;0.00;;;13.80;99.90;;;;;;5066292;28;20133;-86
2022/10/22 08:48:48;;;;;;;0.00;0.00;;;14.00;99.90;;;;;;5088471;28;20518;-87
2022/10/22 08:51:17;;;;;;;0.00;0.00;;;14.20;99.90;;;;;;5089873;28;20560;-88
2022/10/22 08:53:57;;;;;;;0.00;0.00;;;14.10;99.90;;;;;;5086452;28;20051;-86
2022/10/22 08:56:24;;;;;;;0.03;0.03;;;14.20;99.90;;;;;;5084909;28;20037;-87
2022/10/22 08:58:57;;;;;;;0.00;0.00;;;15.00;99.90;;;;;;5089092;28;20052;-88
2022/10/22 09:01:33;;;;;;;0.00;0.00;;;14.50;99.90;;;;;;5101228;28;20510;-89
2022/10/22 09:04:06;;;;;;;0.00;0.00;;;14.60;99.90;;;;;;5087972;28;20106;-88
2022/10/22 09:06:35;;;;;;;0.00;0.00;;;16.00;99.90;;;;;;5080829;28;20079;-87
2022/10/22 09:09:10;;;;;;;0.00;0.00;;;15.40;99.90;;;;;;5080693;28;20050;-88
2022/10/22 09:11:39;;;;;;;0.00;0.00;;;15.10;99.90;;;;;;5093365;28;20086;-88
2022/10/22 09:14:13;;;;;;;0.00;0.00;;;15.80;99.90;;;;;;5085446;28;20047;-87
2022/10/22 09:17:12;;;;;;;0.00;0.00;;;15.30;99.90;;;;;;5085754;28;20424;-86
2022/10/22 09:19:47;;;;;;;0.00;0.00;;;15.30;99.90;;;;;;5083938;28;20052;-86
2022/10/22 09:22:25;;;;;;;0.00;0.00;;;16.50;99.90;;;;;;5086652;28;20066;-86
2022/10/22 09:24:57;;;;;;;0.00;0.00;;;15.50;99.90;;;;;;5088523;28;20044;-86
2022/10/22 09:27:28;;;;;;;0.00;0.00;;;15.50;99.90;;;;;;5082571;28;20040;-86
2022/10/22 09:29:56;;;;;;;0.00;0.00;;;15.60;99.90;;;;;;5086400;28;20050;-86
2022/10/22 09:32:25;;;;;;;0.00;0.00;;;15.60;99.90;;;;;;5085539;28;20134;-86
2022/10/22 09:34:56;;;;;;;0.08;0.08;;;15.60;99.90;;;;;;5089001;28;20047;-86
2022/10/22 09:37:26;;;;;;;0.00;0.00;;;15.70;99.90;;;;;;5088968;28;20482;-86
2022/10/22 09:39:55;;;;;;;0.00;0.00;;;15.70;99.90;;;;;;5089749;28;20601;-86
2022/10/22 09:42:22;;;;;;;0.00;0.00;;;15.80;99.90;;;;;;5102732;28;20032;-86
2022/10/22 09:44:52;;;;;;;0.00;0.00;;;15.90;99.90;;;;;;5087888;28;20122;-86
2022/10/22 09:47:31;;;;;;;0.00;0.00;;;16.00;99.90;;;;;;5083502;28;20045;-86
2022/10/22 09:50:24;;;;;;;0.00;0.00;;;16.10;99.90;;;;;;5075842;28;20044;-86
2022/10/22 09:52:57;;;;;;;0.00;0.00;;;16.20;99.90;;;;;;5084231;28;20071;-86
2022/10/22 09:55:25;;;;;;;0.00;0.00;;;16.20;99.90;;;;;;5079880;28;20570;-87
2022/10/22 09:57:53;;;;;;;0.10;0.10;;;16.30;99.90;;;;;;5082172;28;20054;-87
2022/10/22 10:00:23;;;;;;;0.05;0.05;;;16.30;99.90;;;;;;5078016;28;20186;-86
2022/10/22 10:02:56;;;;;;;0.00;0.00;;;18.50;99.90;;;;;;5083296;28;20476;-86
2022/10/22 10:05:28;;;;;;;0.00;0.00;;;16.50;99.90;;;;;;5069838;28;20040;-87
2022/10/22 10:07:55;;;;;;;0.00;0.00;;;16.80;99.90;;;;;;5081646;28;20039;-85
2022/10/22 10:10:32;;;;;;;0.00;0.00;;;18.20;99.90;;;;;;5086756;28;20047;-87
2022/10/22 10:13:11;;;;;;;0.00;0.00;;;16.80;99.90;;;;;;5083573;28;20415;-87
2022/10/22 10:15:45;;;;;;;0.00;0.00;;;17.40;99.90;;;;;;5079505;28;20052;-87
2022/10/22 10:18:27;;;;;;;0.00;0.00;;;16.90;99.90;;;;;;5084796;28;20201;-87
2022/10/22 10:21:06;;;;;;;0.00;0.00;;;17.00;99.90;;;;;;5077804;28;20139;-86
2022/10/22 10:23:39;;;;;;;0.00;0.00;;;17.20;99.90;;;;;;5083934;28;20040;-87
2022/10/22 10:26:13;;;;;;;0.00;0.00;;;17.40;99.90;;;;;;5082761;28;20503;-87
2022/10/22 10:28:56;;;;;;;0.00;0.00;;;17.40;99.90;;;;;;5085110;28;20385;-86
2022/10/22 10:31:37;;;;;;;0.00;0.00;;;17.50;99.90;;;;;;5080232;28;20036;-87
2022/10/22 10:34:17;;;;;;;0.00;0.00;;;17.60;99.90;;;;;;5085221;28;20094;-87
2022/10/22 10:36:53;;;;;;;0.00;0.00;;;17.60;99.90;;;;;;5083889;28;20056;-86
2022/10/22 10:39:24;;;;;;;0.00;0.00;;;17.60;99.90;;;;;;5084498;28;20135;-86
2022/10/22 10:41:58;;;;;;;0.00;0.00;;;17.60;99.90;;;;;;5080899;28;20079;-86
2022/10/22 10:44:43;;;;;;;0.00;0.00;;;17.60;99.90;;;;;;5086947;28;20048;-87
2022/10/22 10:47:29;;;;;;;0.00;0.00;;;17.60;99.90;;;;;;5088745;28;20085;-86
2022/10/22 10:50:12;;;;;;;0.00;0.00;;;17.50;99.90;;;;;;5083861;28;20051;-86
2022/10/22 10:52:47;;;;;;;0.00;0.00;;;17.50;99.90;;;;;;5089509;28;20520;-87
2022/10/22 10:55:27;;;;;;;0.00;0.00;;;17.70;99.90;;;;;;5087983;28;20044;-87
2022/10/22 10:58:02;;;;;;;0.00;0.00;;;17.80;99.90;;;;;;5100058;28;20686;-88
2022/10/22 11:00:33;;;;;;;0.00;0.00;;;18.00;99.90;;;;;;5085816;28;20041;-86
2022/10/22 11:03:33;;;;;;;0.00;0.00;;;17.90;99.90;;;;;;5091047;28;20044;-87
2022/10/22 11:06:08;;;;;;;0.00;0.00;;;18.10;99.90;;;;;;5085027;28;20043;-87
2022/10/22 11:08:38;;;;;;;0.00;0.00;;;18.00;99.90;;;;;;5090802;28;20032;-86
2022/10/22 11:11:11;;;;;;;0.00;0.00;;;18.10;99.90;;;;;;5092947;28;20036;-87
2022/10/22 11:13:42;;;;;;;0.00;0.00;;;18.30;99.90;;;;;;5093959;28;20407;-86
2022/10/22 11:16:15;;;;;;;0.00;0.00;;;18.50;99.90;;;;;;5090624;28;20170;-87
2022/10/22 11:18:50;;;;;;;0.00;0.00;;;18.60;99.90;;;;;;5084502;28;20040;-87
2022/10/22 11:21:27;;;;;;;0.00;0.00;;;18.70;99.90;;;;;;5088292;28;20503;-85
2022/10/22 11:24:02;;;;;;;0.00;0.00;;;18.70;99.90;;;;;;5092603;28;20794;-85
2022/10/22 11:26:37;;;;;;;0.00;0.00;;;18.70;99.90;;;;;;5089901;28;20054;-87
2022/10/22 11:29:10;;;;;;;0.00;0.00;;;18.80;99.90;;;;;;5091516;28;20407;-86
2022/10/22 11:31:38;;;;;;;0.00;0.00;;;18.80;99.90;;;;;;5091300;28;20550;-85
2022/10/22 11:34:14;;;;;;;0.00;0.00;;;18.60;99.90;;;;;;5090501;28;20073;-86
2022/10/22 11:37:03;;;;;;;0.00;0.00;;;18.60;99.90;;;;;;5086021;28;20094;-86
2022/10/22 11:39:39;;;;;;;0.00;0.00;;;18.50;99.90;;;;;;5086190;28;20083;-86
2022/10/22 11:42:10;;;;;;;0.00;0.00;;;18.60;99.90;;;;;;5100477;28;20182;-87
2022/10/22 11:44:56;;;;;;;0.00;0.00;;;18.60;99.90;;;;;;5080683;28;20135;-85
2022/10/22 11:47:24;;;;;;;0.00;0.00;;;18.60;99.90;;;;;;5089282;28;21645;-86
2022/10/22 11:49:57;;;;;;;0.00;0.00;;;18.60;99.90;;;;;;5091539;28;20525;-86
2022/10/22 11:52:38;;;;;;;0.00;0.00;;;19.10;99.90;;;;;;5092099;28;20044;-86
2022/10/22 11:55:32;;;;;;;0.00;0.00;;;19.90;99.90;;;;;;5091255;28;20043;-86
2022/10/22 11:58:00;;;;;;;0.00;0.00;;;18.40;99.90;;;;;;5094768;28;20078;-86
2022/10/22 12:00:45;;;;;;;0.00;0.00;;;18.30;99.90;;;;;;5092227;28;20044;-86
2022/10/22 12:03:17;;;;;;;0.00;0.00;;;18.00;99.90;;;;;;5081560;28;20033;-86
2022/10/22 12:05:44;;;;;;;0.00;0.00;;;18.50;99.90;;;;;;5105309;28;20044;-85
2022/10/22 12:08:24;;;;;;;0.00;0.00;;;18.00;99.90;;;;;;5091042;28;20082;-86
2022/10/22 12:11:12;;;;;;;0.00;0.00;;;18.20;99.90;;;;;;5089598;28;20093;-86
2022/10/22 12:14:12;;;;;;;0.00;0.00;;;18.30;99.90;;;;;;5087871;28;20075;-86
2022/10/22 12:16:43;;;;;;;0.00;0.00;;;18.40;99.90;;;;;;5090773;28;20461;-86
2022/10/22 12:19:30;;;;;;;0.00;0.00;;;18.90;99.90;;;;;;5092912;28;20130;-85
2022/10/22 12:22:01;;;;;;;0.00;0.00;;;18.30;99.90;;;;;;5089984;28;20135;-86
2022/10/22 12:24:37;;;;;;;0.00;0.00;;;18.30;99.90;;;;;;5088726;28;20039;-86
2022/10/22 12:27:14;;;;;;;0.00;0.00;;;18.40;99.90;;;;;;5098267;28;20074;-86
2022/10/22 12:29:42;;;;;;;0.00;0.00;;;19.30;99.90;;;;;;5085417;28;20471;-87
2022/10/22 12:32:13;;;;;;;0.00;0.00;;;18.40;99.90;;;;;;5087340;28;20064;-86
2022/10/22 12:34:45;;;;;;;0.00;0.00;;;19.30;99.90;;;;;;5086875;28;20119;-87
2022/10/22 12:37:13;;;;;;;0.00;0.00;;;20.20;99.90;;;;;;5081035;28;20385;-86
2022/10/22 12:39:43;;;;;;;0.00;0.00;;;18.80;99.90;;;;;;5086080;28;20075;-88
2022/10/22 12:42:13;;;;;;;0.00;0.00;;;16.40;99.90;;;;;;5088970;28;20094;-87
2022/10/22 12:44:41;;;;;;;0.00;0.00;;;18.40;99.90;;;;;;5084995;28;20054;-87
2022/10/22 12:47:14;;;;;;;0.00;0.00;;;18.40;99.90;;;;;;5086957;28;20046;-86
2022/10/22 12:49:45;;;;;;;0.00;0.00;;;18.30;99.90;;;;;;5092346;28;20052;-87
2022/10/22 12:52:16;;;;;;;0.00;0.00;;;18.30;99.90;;;;;;5089231;28;20042;-86
2022/10/22 12:54:46;;;;;;;0.00;0.00;;;18.30;99.90;;;;;;5085263;28;20069;-88
2022/10/22 12:57:16;;;;;;;0.00;0.00;;;18.30;99.90;;;;;;5081631;28;20155;-86
2022/10/22 12:59:47;;;;;;;0.00;0.00;;;18.10;99.90;;;;;;5081373;28;20044;-86
2022/10/22 13:02:20;;;;;;;0.00;0.00;;;18.00;99.90;;;;;;5084222;28;20716;-86
2022/10/22 13:05:12;;;;;;;0.00;0.00;;;17.90;99.90;;;;;;5088320;28;20119;-88
2022/10/22 13:07:42;;;;;;;0.00;0.00;;;17.70;99.90;;;;;;5089630;28;20109;-86
2022/10/22 13:10:18;;;;;;;0.00;0.00;;;17.70;99.90;;;;;;5086592;28;20660;-86
2022/10/22 13:12:49;;;;;;;0.00;0.00;;;17.70;99.90;;;;;;5089416;28;20052;-86